• Join FlightAware (Why Join?)
  • Login
  • US Flag 
09:12PM EDT


 

Airport Tracker/Info


-or-


 

Live Flight TrackerFlight Track Log ✈ UAL3776 ✈ 16-Apr-2013 ✈ KIAD - KRDU

Flight Track Log - Related Links

Times and Time Zones

All times are in EDT time to prevent confusion due to time zone crossing. See the UAL3776 flight status page for this flight to view local times or setup timezone preferences in your user account.

Time Position Orientation Groundspeed Altitude Reporting Facility
EDT Latitude Longitude Course Direction KTS MPH feet Rate Location/Type
03:40PM 38.9333 -77.5167 185° South 179 206 1,900  Level Potomac TRACON
03:42PM 38.8181 -77.5553 195° South 243 280 6,400 2,700 Climbing Washington Center
03:43PM 38.7494 -77.5561 181° South 277 319 9,500 2,520 Climbing Washington Center
03:44PM 38.6597 -77.5564 180° South 295 339 11,500 1,980 Climbing Washington Center
03:45PM 38.5742 -77.5622 183° South 330 380 13,500 2,220 Climbing Washington Center
03:46PM 38.5040 -77.6590 185° South  Level Estimated
03:46PM 38.4678 -77.5644 181° South 343 395 16,000  Level Washington Center
03:47PM 38.3778 -77.5886 192° South 367 422 17,900 1,920 Climbing Washington Center
03:48PM 38.2825 -77.6656 212° Southwest 362 417 19,900 1,800 Climbing Washington Center
03:49PM 38.1978 -77.7397 215° Southwest 371 427 21,600 1,740 Climbing Washington Center
03:50PM 38.1067 -77.8164 214° Southwest 392 451 23,400 1,140 Climbing Washington Center
03:51PM 38.0347 -77.8750 213° Southwest 392 451 24,000 300 Climbing Washington Center
03:52PM 37.9244 -77.9717 215° Southwest 418 481 24,000  Level Washington Center
03:53PM 37.8225 -78.0603 214° Southwest 437 503 24,000  Level Washington Center
03:54PM 37.7206 -78.1464 214° Southwest 443 510 24,000 -360 Level Washington Center
03:55PM 37.6122 -78.2397 214° Southwest 443 510 23,300 -900 Descending Washington Center
03:56PM 37.5186 -78.3175 213° Southwest 443 510 22,300 -660 Descending Washington Center
03:57PM 37.4208 -78.3978 213° Southwest 443 510 22,000 -180 Descending Washington Center
03:58PM 37.3314 -78.4728 214° Southwest 425 489 22,000  Level Washington Center
03:59PM 37.2400 -78.5478 213° Southwest 413 475 22,000 -60 Level Washington Center
04:00PM 37.1258 -78.6058 202° Southwest 400 460 21,900 -660 Descending Washington Center
04:01PM 37.0183 -78.6561 200° South 400 460 20,800 -1,380 Descending Washington Center
04:02PM 36.9106 -78.7039 200° South 406 467 19,200 -1,680 Descending Washington Center
04:03PM 36.8072 -78.7517 200° South 412 474 17,500 -1,860 Descending Washington Center
04:04PM 36.7142 -78.7944 200° South 412 474 15,500 -2,100 Descending Washington Center
04:05PM 36.6572 -78.8206 200° South 385 443 14,500 -2,220 Descending Washington Center
04:05PM 36.6064 -78.8469 203° Southwest 394 453 13,300 -1,980 Descending Washington Center
04:06PM 36.5619 -78.8658 199° South 373 429 12,500 -3,360 Descending Washington Center
04:06PM 36.5092 -78.8869 198° South 382 440 10,000 -1,980 Descending Washington Center
04:07PM 36.4669 -78.9056 200° South 360 414 10,500  Climbing Washington Center
04:07PM 36.4164 -78.9267 199° South 372 428 10,000 -420 Descending Washington Center
04:08PM 36.3664 -78.9272 181° South 344 396 10,100  Climbing Washington Center
04:08PM 36.3331 -78.9156 164° South 342 394 10,000 -420 Descending Washington Center
04:09PM 36.2814 -78.9031 169° South 289 333 9,700 -1,020 Descending Washington Center
04:09PM 36.2483 -78.8914 164° South 308 354 9,000 -1,500 Descending Washington Center
04:10PM 36.2069 -78.8792 167° South 269 310 8,200 -1,020 Descending Washington Center
04:10PM 36.1800 -78.8731 170° South 278 320 8,000 -180 Descending Washington Center
04:11PM 36.1178 -78.8575 169° South 271 312 8,000  Level Washington Center
04:11PM 36.1014 -78.8517 164° South 268 308 8,000  Level Washington Center
04:12PM 36.0494 -78.8419 171° South 253 291 8,000  Level Washington Center
04:12PM 36.0306 -78.8411 178° South 262 302 8,000 -120 Level Washington Center
04:13PM 35.9950 -78.8447 185° South 235 270 7,900 -720 Descending Washington Center
04:13PM 35.9678 -78.8539 195° South 248 285 7,300 -1,380 Descending Washington Center
04:14PM 35.9336 -78.8833 215° Southwest 228 262 6,500 -1,320 Descending Washington Center
04:14PM 35.9142 -78.9006 216° Southwest 228 262 6,000 -1,440 Descending Washington Center
04:15PM 35.8775 -78.9503 228° Southwest 220 253 4,700 -1,800 Descending Washington Center
04:16PM 35.8228 -78.9633 191° South 210 242 2,400 -1,320 Descending Washington Center
04:17PM 35.7994 -78.9033 116° Southeast 191 220 2,000 -300 Descending Washington Center
04:18PM 35.8211 -78.8683 53° Northeast 161 185 1,900 -540 Descending Washington Center
04:19PM 35.8450 -78.8386 45° Northeast 134 154 1,200 -780 Descending Washington Center
04:21PM 35.8667 -78.7833 49° Northeast  Level FlightAware Approximate
04:28PM 35.8776 -78.7875 49° Northeast  Level Estimated
04:29PM 35.8776 -78.7875 49° Northeast  Level Estimated
04:30PM 35.8776 -78.7875 49° Northeast  Level Estimated